createdAt,value
2022-08-14T00:01:27.663Z,5.53
2022-08-14T00:06:36.701Z,5.06
2022-08-14T00:11:45.936Z,4.91
2022-08-14T00:16:55.795Z,3.91
2022-08-14T00:21:59.700Z,4.43
2022-08-14T00:27:06.969Z,4.99
2022-08-14T00:32:52.534Z,5.00
2022-08-14T00:37:20.470Z,6.30
2022-08-14T00:42:55.628Z,6.03
2022-08-14T00:47:44.713Z,5.63
2022-08-14T00:52:40.841Z,4.24
2022-08-14T00:57:47.890Z,6.57
2022-08-14T01:02:54.513Z,5.29
2022-08-14T01:08:01.041Z,5.87
2022-08-14T01:13:07.751Z,4.42
2022-08-14T01:18:14.279Z,3.94
2022-08-14T01:23:21.709Z,7.21
2022-08-14T01:28:46.746Z,6.89
2022-08-14T01:33:59.931Z,5.72
2022-08-14T01:38:44.145Z,4.06
2022-08-14T01:43:56.345Z,6.92
2022-08-14T01:48:55.124Z,5.67
2022-08-14T01:54:01.768Z,6.64
2022-08-14T01:59:09.643Z,5.56
2022-08-14T02:04:40.665Z,6.58
2022-08-14T02:09:22.518Z,4.64
2022-08-14T02:14:31.519Z,5.54
2022-08-14T02:19:35.166Z,6.04
2022-08-14T02:24:45.098Z,5.53
2022-08-14T02:30:00.502Z,6.34
2022-08-14T02:34:55.578Z,6.82
2022-08-14T02:40:02.643Z,6.16
2022-08-14T02:45:09.256Z,6.47
2022-08-14T02:50:16.230Z,5.16
2022-08-14T02:55:22.875Z,5.59
2022-08-14T03:00:29.480Z,5.29
2022-08-14T03:05:37.000Z,5.12
2022-08-14T03:10:49.333Z,5.91
2022-08-14T03:15:49.367Z,5.45
2022-08-14T03:20:56.015Z,7.77
2022-08-14T03:26:02.642Z,7.61
2022-08-14T03:31:13.186Z,6.02
2022-08-14T03:37:39.284Z,6.54
2022-08-14T03:41:23.244Z,5.90
2022-08-14T03:46:52.358Z,6.83
2022-08-14T03:51:35.602Z,8.22
2022-08-14T03:56:42.770Z,7.17
2022-08-14T04:01:58.044Z,5.33
2022-08-14T04:06:58.908Z,5.87
2022-08-14T04:12:03.022Z,6.00
2022-08-14T04:17:09.868Z,6.37
2022-08-14T04:22:16.689Z,4.94
2022-08-14T04:27:22.777Z,4.99
2022-08-14T04:33:00.981Z,4.97
2022-08-14T04:37:36.496Z,6.67
2022-08-14T04:42:47.157Z,5.26
2022-08-14T04:47:53.682Z,5.94
2022-08-14T04:52:56.293Z,9.03
2022-08-14T04:58:03.332Z,6.92
2022-08-14T05:03:09.921Z,6.71
2022-08-14T05:08:32.382Z,8.25
2022-08-14T05:13:24.771Z,5.85
2022-08-14T05:19:16.981Z,5.17
2022-08-14T05:23:37.319Z,9.21
2022-08-14T05:28:43.323Z,8.11
2022-08-14T05:33:56.574Z,6.25
2022-08-14T05:38:57.034Z,7.32
2022-08-14T05:44:04.115Z,8.56
2022-08-14T05:49:11.323Z,7.20
2022-08-14T05:54:27.081Z,9.04
2022-08-14T05:59:36.421Z,7.97
2022-08-14T06:04:30.864Z,8.95
2022-08-14T06:09:40.504Z,8.75
2022-08-14T06:14:44.394Z,8.29
2022-08-14T06:19:51.170Z,8.06
2022-08-14T06:24:58.149Z,7.49
2022-08-14T06:30:05.198Z,10.51
2022-08-14T06:35:13.231Z,8.75
2022-08-14T06:40:27.599Z,7.36
2022-08-14T06:45:27.956Z,8.08
2022-08-14T06:50:35.108Z,9.11
2022-08-14T06:55:58.486Z,6.35
2022-08-14T07:00:48.778Z,5.92
2022-08-14T07:05:58.041Z,8.00
2022-08-14T07:11:02.882Z,6.20
2022-08-14T07:16:09.913Z,5.95
2022-08-14T07:21:19.544Z,7.07
2022-08-14T07:26:16.530Z,9.84
2022-08-14T07:31:23.483Z,6.16
2022-08-14T07:36:31.245Z,5.05
2022-08-14T07:41:39.709Z,8.00
2022-08-14T07:46:46.518Z,6.49
2022-08-14T07:51:53.772Z,5.94
2022-08-14T07:57:12.268Z,6.06
2022-08-14T08:02:07.827Z,5.10
2022-08-14T08:07:15.637Z,6.35
2022-08-14T08:12:26.134Z,6.67
2022-08-14T08:17:35.052Z,5.76
2022-08-14T08:22:39.225Z,5.39
2022-08-14T08:27:45.931Z,4.72
2022-08-14T08:32:52.916Z,4.25
2022-08-14T08:38:01.641Z,5.41
2022-08-14T08:43:06.673Z,5.68
2022-08-14T08:48:17.871Z,3.80
2022-08-14T08:53:20.071Z,4.43
2022-08-14T08:58:27.255Z,4.42
2022-08-14T09:03:37.878Z,4.41
2022-08-14T09:08:40.883Z,4.24
2022-08-14T09:13:49.004Z,4.60
2022-08-14T09:18:56.110Z,5.06
2022-08-14T09:24:29.166Z,2.81
2022-08-14T09:29:10.510Z,4.56
2022-08-14T09:34:19.742Z,2.74
2022-08-14T09:39:23.604Z,2.91
2022-08-14T09:44:28.858Z,2.94
2022-08-14T09:49:40.058Z,3.29
2022-08-14T09:54:42.247Z,5.46
2022-08-14T09:59:50.343Z,3.79
2022-08-14T10:04:55.954Z,3.97
2022-08-14T10:10:03.098Z,4.99
2022-08-14T10:15:09.708Z,3.52
2022-08-14T10:20:39.861Z,3.88
2022-08-14T10:25:16.211Z,4.87
2022-08-14T10:30:33.058Z,4.35
2022-08-14T10:35:32.112Z,3.12
2022-08-14T10:40:44.335Z,4.85
2022-08-14T10:45:52.050Z,4.69
2022-08-14T10:50:54.069Z,3.63
2022-08-14T10:56:01.063Z,5.45
2022-08-14T11:01:07.883Z,3.21
2022-08-14T11:06:14.915Z,4.05
2022-08-14T11:11:21.616Z,4.27
2022-08-14T11:16:28.790Z,5.05
2022-08-14T11:21:35.338Z,4.01
2022-08-14T11:26:41.833Z,3.33
2022-08-14T11:31:51.851Z,5.07
2022-08-14T11:37:07.694Z,4.13
2022-08-14T11:42:57.019Z,3.64
2022-08-14T11:47:15.845Z,9.03
2022-08-14T11:52:16.791Z,4.53
2022-08-14T11:57:15.839Z,5.67
2022-08-14T12:03:00.857Z,3.55
2022-08-14T12:07:48.143Z,4.75
2022-08-14T12:12:36.204Z,2.91
2022-08-14T12:17:47.238Z,4.14
2022-08-14T12:22:31.542Z,3.74
2022-08-14T12:27:41.769Z,2.56
2022-08-14T12:32:46.964Z,4.69
2022-08-14T12:37:59.494Z,4.97
2022-08-14T12:42:56.723Z,5.38
2022-08-14T12:48:21.149Z,5.33
2022-08-14T12:53:17.301Z,4.04
2022-08-14T12:58:29.442Z,4.73
2022-08-14T13:03:26.977Z,3.55
2022-08-14T13:08:33.487Z,5.77
2022-08-14T13:13:39.373Z,3.82
2022-08-14T13:18:46.677Z,5.40
2022-08-14T13:23:50.144Z,4.54
2022-08-14T13:29:01.407Z,6.54
2022-08-14T13:34:07.441Z,5.49
2022-08-14T13:39:13.665Z,2.82
2022-08-14T13:44:29.517Z,4.69
2022-08-14T13:49:29.104Z,4.21
2022-08-14T13:54:33.244Z,4.55
2022-08-14T13:59:40.424Z,5.66
2022-08-14T14:04:49.551Z,3.59
2022-08-14T14:09:53.757Z,5.87
2022-08-14T14:15:04.754Z,6.24
2022-08-14T14:20:11.348Z,11.52
2022-08-14T14:25:07.851Z,14.66
2022-08-14T14:30:46.595Z,6.97
2022-08-14T14:35:21.589Z,6.93
2022-08-14T14:40:50.345Z,4.59
2022-08-14T14:45:35.098Z,5.31
2022-08-14T14:50:41.809Z,4.47
2022-08-14T14:56:46.611Z,3.97
2022-08-14T15:00:55.030Z,3.90
2022-08-14T15:06:01.594Z,4.35
2022-08-14T15:11:13.775Z,5.70
2022-08-14T15:16:14.885Z,5.59
2022-08-14T15:21:23.271Z,5.40
2022-08-14T15:26:32.130Z,5.41
2022-08-14T15:31:40.021Z,5.01
2022-08-14T15:36:47.322Z,5.82
2022-08-14T15:41:53.950Z,3.47
2022-08-14T15:47:00.521Z,2.91
2022-08-14T15:52:07.871Z,4.24
2022-08-14T15:57:14.841Z,5.09
2022-08-14T16:02:24.619Z,4.47
2022-08-14T16:07:28.627Z,3.35
2022-08-14T16:12:46.003Z,5.00
2022-08-14T16:17:43.975Z,4.95
2022-08-14T16:22:59.081Z,7.27
2022-08-14T16:27:55.581Z,4.85
2022-08-14T16:33:02.644Z,5.41
2022-08-14T16:38:19.255Z,2.86
2022-08-14T16:43:16.542Z,3.45
2022-08-14T16:48:55.395Z,3.52
2022-08-14T16:53:30.272Z,4.26
2022-08-14T16:58:36.822Z,4.12
2022-08-14T17:03:43.786Z,4.38
2022-08-14T17:08:50.826Z,5.05
2022-08-14T17:14:01.303Z,6.71
2022-08-14T17:19:04.882Z,4.46
2022-08-14T17:24:55.993Z,4.37
2022-08-14T17:29:18.462Z,3.63
2022-08-14T17:34:25.534Z,5.99
2022-08-14T17:44:44.881Z,4.05
2022-08-14T17:49:45.433Z,6.28
2022-08-14T17:54:59.055Z,4.87
2022-08-14T17:59:59.274Z,4.18
2022-08-14T18:05:08.214Z,7.11
2022-08-14T18:10:52.292Z,4.57
2022-08-14T18:15:19.712Z,5.86
2022-08-14T18:21:24.781Z,4.27
2022-08-14T18:25:33.559Z,6.11
2022-08-14T18:30:58.037Z,5.13
2022-08-14T18:35:59.280Z,5.49
2022-08-14T18:40:53.862Z,6.25
2022-08-14T18:46:01.184Z,6.00
2022-08-14T18:51:08.172Z,7.18
2022-08-14T18:56:18.442Z,8.08
2022-08-14T19:01:23.016Z,7.36
2022-08-14T19:06:29.984Z,21.96
2022-08-14T19:11:36.907Z,12.23
2022-08-14T19:16:48.202Z,12.54
2022-08-14T19:21:51.196Z,10.70
2022-08-14T19:26:58.244Z,11.45
2022-08-14T19:32:05.291Z,11.09
2022-08-14T19:37:12.470Z,9.59
2022-08-14T19:42:28.077Z,10.44
2022-08-14T19:47:26.376Z,11.04
2022-08-14T19:52:37.287Z,8.57
2022-08-14T19:57:39.451Z,16.10
2022-08-14T20:02:45.946Z,19.27
2022-08-14T20:07:59.365Z,14.21
2022-08-14T20:13:00.932Z,12.55
2022-08-14T20:18:08.074Z,8.03
2022-08-14T20:23:14.614Z,13.10
2022-08-14T20:28:29.801Z,12.65
2022-08-14T20:33:28.266Z,12.61
2022-08-14T20:38:35.315Z,9.27
2022-08-14T20:43:44.390Z,10.35
2022-08-14T20:48:53.088Z,10.48
2022-08-14T20:53:56.512Z,11.65
2022-08-14T20:59:03.692Z,8.02
2022-08-14T21:04:14.149Z,7.54
2022-08-14T21:09:16.921Z,8.84
2022-08-14T21:14:29.148Z,7.95
2022-08-14T21:19:32.728Z,7.80
2022-08-14T21:24:47.561Z,8.66
2022-08-14T21:29:54.394Z,6.34
2022-08-14T21:34:55.385Z,10.79
2022-08-14T21:39:59.232Z,7.23
2022-08-14T21:45:05.760Z,9.01
2022-08-14T21:50:56.400Z,10.17
2022-08-14T21:55:23.270Z,6.21
2022-08-14T22:00:35.870Z,9.27
2022-08-14T22:05:32.701Z,11.71
2022-08-14T22:10:39.927Z,8.19
2022-08-14T22:15:49.511Z,9.01
2022-08-14T22:20:56.498Z,14.37
2022-08-14T22:25:59.927Z,14.30
2022-08-14T22:31:10.186Z,8.75
2022-08-14T22:36:13.477Z,8.61
2022-08-14T22:41:26.892Z,9.05
2022-08-14T22:46:26.996Z,9.87
2022-08-14T22:51:40.656Z,11.07
2022-08-14T22:56:40.610Z,12.67
2022-08-14T23:01:56.921Z,13.38
2022-08-14T23:07:02.698Z,11.31
2022-08-14T23:12:00.584Z,9.44
2022-08-14T23:17:07.747Z,10.53
2022-08-14T23:22:17.008Z,9.82
2022-08-14T23:27:28.341Z,9.54
2022-08-14T23:32:27.737Z,9.57
2022-08-14T23:37:34.324Z,7.79
2022-08-14T23:42:40.998Z,8.24
2022-08-14T23:47:52.074Z,11.36
2022-08-14T23:53:07.567Z,7.86
2022-08-14T23:58:01.288Z,6.90
